Flight Track Log - Related Links

Times and Time Zones

All times are in EDT time to prevent confusion due to time zone crossing. See the JUS327 flight status page for this flight to view local times or setup timezone preferences in your user account.

Time Position Orientation Groundspeed Altitude Reporting Facility
EDT Latitude Longitude Course Direction KTS MPH feet Rate Location/Type
Tue 02:44:42 PM 27.5272 -99.4625 307° West 149 171 1,800  Level Houston Center
Tue 02:45:44 PM 27.5175 -99.4233 106° East 184 212 3,000 1,440 Climbing Houston Center
Tue 02:46:47 PM 27.5681 -99.4575 329° Northwest 224 258 4,800 2,640 Climbing Houston Center
Tue 02:47:49 PM 27.6394 -99.5289 318° Northwest 262 302 8,500 3,194 Climbing Houston Center
Tue 02:48:00 PM 27.8868 -99.9768 307° West  Level Estimated
Tue 02:48:51 PM 27.7139 -99.5667 336° Northwest 282 325 11,400  Level Houston Center
Tue 02:49:00 PM 27.9437 -100.0630 307° West  Level Estimated
Tue 02:49:53 PM 27.7931 -99.6158 331° Northwest 319 367 14,200  Level Houston Center
Tue 02:50:55 PM 27.8636 -99.6769 323° Northwest 323 372 17,600 2,710 Climbing Houston Center
Tue 02:51:57 PM 27.9444 -99.7269 331° Northwest 329 379 19,800 2,323 Climbing Houston Center
Tue 02:52:59 PM 28.0231 -99.7872 326° Northwest 343 395 22,400 2,081 Climbing Houston Center
Tue 02:54:01 PM 28.1225 -99.8622 326° Northwest 356 410 24,100 1,500 Climbing Houston Center
Tue 02:55:03 PM 28.2125 -99.9325 325° Northwest 388 447 25,500 1,645 Climbing Houston Center
Tue 02:56:05 PM 28.3100 -99.9942 331° Northwest 398 458 27,500 1,742 Climbing Houston Center
Tue 02:57:07 PM 28.4006 -100.0672 325° Northwest 400 460 29,100 1,355 Climbing Houston Center
Tue 02:58:09 PM 28.4958 -100.1358 328° Northwest 404 465 30,300 1,355 Climbing Houston Center
Tue 02:59:11 PM 28.5928 -100.2050 328° Northwest 410 472 31,900 1,584 Climbing Houston Center
Tue 03:00:14 PM 28.7067 -100.2936 326° Northwest 405 466 33,600 1,008 Climbing Houston Center
Tue 03:01:16 PM 28.8056 -100.3594 330° Northwest 411 473 34,000 194 Climbing Houston Center
Tue 03:02:18 PM 28.8989 -100.4369 324° Northwest 414 476 34,000  Level Houston Center
Tue 03:03:20 PM 28.9992 -100.5025 330° Northwest 415 478 34,000  Level Houston Center
Tue 03:04:22 PM 29.0931 -100.5725 327° Northwest 402 463 34,000 -48 Level Houston Center
Tue 03:05:24 PM 29.1850 -100.6481 324° Northwest 407 468 33,900  Descending Houston Center
Tue 03:06:27 PM 29.3047 -100.7289 330° Northwest 413 475 34,000 48 Climbing Houston Center
Tue 03:07:28 PM 29.3867 -100.8150 318° Northwest 403 464 34,000  Level Houston Center
Tue 03:08:31 PM 29.4586 -100.9122 310° West 398 458 34,000  Level Houston Center
Tue 03:09:33 PM 29.5353 -101.0078 313° West 405 466 34,000  Level Houston Center
Tue 03:10:35 PM 29.6042 -101.1086 308° West 403 464 34,000  Level Houston Center
Tue 03:11:37 PM 29.6794 -101.2050 312° West 404 465 34,000  Level Houston Center
Tue 03:12:39 PM 29.7503 -101.3056 309° West 401 461 34,000  Level Houston Center
Tue 03:13:41 PM 29.8392 -101.4236 311° West 406 467 34,000  Level Houston Center
Tue 03:14:43 PM 29.9064 -101.5281 307° West 405 466 34,000  Level Houston Center
Tue 03:15:45 PM 29.9383 -101.6514 287° West 402 463 34,000 -48 Level Houston Center
Tue 03:16:48 PM 29.9875 -101.7675 296° West 405 466 33,900  Descending Houston Center
Tue 03:17:50 PM 30.0458 -101.8786 301° West 405 466 34,000 52 Climbing Houston Center
Tue 03:18:44 PM 30.0861 -101.9828 294° West 401 461 34,000  Level Albuquerque Center
Tue 03:19:45 PM 30.1344 -102.0986 296° West 401 461 34,000  Level Albuquerque Center
Tue 03:20:47 PM 30.1914 -102.2397 295° West 402 463 34,000  Level Albuquerque Center
Tue 03:21:49 PM 30.2419 -102.3553 297° West 402 463 34,000  Level Albuquerque Center
Tue 03:22:51 PM 30.2875 -102.4733 294° West 401 461 34,000  Level Albuquerque Center
Tue 03:23:52 PM 30.3367 -102.5903 296° West 402 463 34,000  Level Albuquerque Center
Tue 03:24:54 PM 30.3833 -102.7097 294° West 404 465 34,000  Level Albuquerque Center
Tue 03:25:56 PM 30.4333 -102.8278 296° West 406 467 34,000  Level Albuquerque Center
Tue 03:26:58 PM 30.4797 -102.9472 294° West 406 467 34,000  Level Albuquerque Center
Tue 03:27:59 PM 30.5397 -103.0894 296° West 408 470 34,000  Level Albuquerque Center
Tue 03:29:01 PM 30.5886 -103.2081 296° West 408 470 34,000  Level Albuquerque Center
Tue 03:30:03 PM 30.6356 -103.3283 294° West 408 470 34,000  Level Albuquerque Center
Tue 03:31:04 PM 30.6819 -103.4472 294° West 406 467 34,000  Level Albuquerque Center
Tue 03:32:06 PM 30.7331 -103.5667 296° West 408 470 34,000  Level Albuquerque Center
Tue 03:33:08 PM 30.7781 -103.6856 294° West 406 467 34,000  Level Albuquerque Center
Tue 03:34:09 PM 30.8289 -103.8131 295° West 402 463 34,000  Level Albuquerque Center
Tue 03:35:11 PM 30.8750 -103.9303 295° West 400 460 34,000 -48 Level Albuquerque Center
Tue 03:36:13 PM 30.9203 -104.0464 294° West 397 457 33,900  Descending Albuquerque Center
Tue 03:37:14 PM 30.9661 -104.1617 295° West 394 453 34,000  Climbing Albuquerque Center
Tue 03:38:16 PM 31.0111 -104.2778 294° West 394 453 33,900  Descending Albuquerque Center
Tue 03:39:18 PM 31.0642 -104.4183 294° West 396 456 34,000  Climbing Albuquerque Center
Tue 03:40:20 PM 31.1108 -104.5356 295° West 399 459 33,900  Descending Albuquerque Center
Tue 03:41:21 PM 31.1550 -104.6522 294° West 397 457 34,000 -293 Climbing Albuquerque Center
Tue 03:42:23 PM 31.1769 -104.7775 282° West 397 457 33,300 -1,016 Descending Albuquerque Center
Tue 03:43:25 PM 31.1919 -104.9053 278° West 401 461 31,900 -1,463 Descending Albuquerque Center
Tue 03:44:26 PM 31.2094 -105.0353 279° West 408 470 30,300 -1,902 Descending Albuquerque Center
Tue 03:45:28 PM 31.2442 -105.1867 285° West 408 470 28,000 -2,129 Descending Albuquerque Center
Tue 03:46:30 PM 31.3081 -105.2922 305° West 402 463 25,900 -2,371 Descending Albuquerque Center
Tue 03:47:32 PM 31.3747 -105.3861 310° West 380 437 23,100 -2,829 Descending Albuquerque Center
Tue 03:48:33 PM 31.4186 -105.4894 296° West 356 410 20,100 -3,146 Descending Albuquerque Center
Tue 03:49:15 PM 31.4478 -105.5711 293° West 340 391 17,700 -2,903 Descending Albuquerque Center
Tue 03:49:35 PM 31.4556 -105.5908 295° West 340 391 17,100 -2,951 Descending Albuquerque Center
Tue 03:50:16 PM 31.4872 -105.6683 296° West 334 384 14,700 -2,903 Descending Albuquerque Center
Tue 03:50:37 PM 31.4981 -105.6875 304° West 334 384 14,100 -2,333 Descending Albuquerque Center
Tue 03:51:10 PM 31.5289 -105.7525 299° West 324 373 12,600 -2,419 Descending Albuquerque Center
Tue 03:51:39 PM 31.5475 -105.7956 297° West 312 359 11,600 -1,967 Descending Albuquerque Center
Tue 03:52:11 PM 31.5664 -105.8403 296° West 303 349 10,600 -1,475 Descending Albuquerque Center
Tue 03:52:40 PM 31.5825 -105.8797 296° West 292 336 10,100 -984 Descending Albuquerque Center
Tue 03:53:12 PM 31.6025 -105.9183 301° West 271 312 9,600 -774 Descending Albuquerque Center
Tue 03:53:42 PM 31.6225 -105.9522 305° West 267 307 9,300 -545 Descending Albuquerque Center
Tue 03:54:18 PM 31.6489 -105.9967 305° West 273 314 9,000 -581 Descending Albuquerque Center
Tue 03:54:44 PM 31.6650 -106.0281 301° West 276 318 8,700 -1,082 Descending Albuquerque Center
Tue 03:55:19 PM 31.6883 -106.0717 302° West 271 312 7,900 -1,065 Descending Albuquerque Center
Tue 03:55:46 PM 31.7036 -106.0997 303° West 263 303 7,600 -492 Descending Albuquerque Center
Tue 03:56:20 PM 31.7253 -106.1447 300° West 264 304 7,400 -98 Descending Albuquerque Center
Tue 03:56:47 PM 31.7411 -106.1742 302° West 264 304 7,500 -400 Climbing Albuquerque Center
Tue 03:57:20 PM 31.7650 -106.2097 308° West 245 282 7,000 -871 Descending Albuquerque Center
Tue 03:57:49 PM 31.7792 -106.2308 308° West 226 260 6,600 -1,418 Descending Albuquerque Center
Tue 03:58:15 PM 31.7939 -106.2625 299° West 193 222 5,700 -1,548 Descending Albuquerque Center
Tue 03:58:51 PM 31.7967 -106.2919 276° West 153 176 5,000 -885 Descending Albuquerque Center
Tue 03:59:16 PM 31.7975 -106.3064 274° West 123 142 4,800 -581 Descending Albuquerque Center
Tue 03:59:53 PM 31.7994 -106.3347 275° West 133 153 4,400 -600 Descending Albuquerque Center
Tue 04:00:16 PM 31.7947 -106.3497 250° West 109 125 4,200 -492 Descending Albuquerque Center
Tue 04:00:54 PM 31.8019 -106.3681 295° West 121 139 3,900 -474 Descending Albuquerque Center
Tue 04:02:00 PM 31.8000 -106.3667 300° West  Level FlightAware Approximate
Tue 04:09:00 PM 31.8072 -106.3764 300° West  Level Estimated
Tue 04:10:00 PM 31.8072 -106.3764 300° West  Level Estimated
Tue 04:11:00 PM 31.8072 -106.3764 300° West  Level Estimated
Tue 04:12:00 PM 31.8072 -106.3764 300° West  Level Estimated
Tue 04:13:00 PM 31.8072 -106.3764 300° West  Level Estimated
Tue 04:14:00 PM 31.8072 -106.3764 300° West  Level Estimated
Tue 04:15:00 PM 31.8072 -106.3764 300° West  Level Estimated

Login

Don't have an account? Register now (free) for customized features, flight alerts, and more!